Time;durP1;ratioP1;P1;durP2;ratioP2;P2;SDS_P1;SDS_P2;PMS_P1;PMS_P2;Temp;Humidity;BMP_temperature;BMP_pressure;BME280_temperature;BME280_humidity;BME280_pressure;Samples;Min_cycle;Max_cycle;Signal;HPM_P1;HPM_P2
2022/01/20 00:00:44;;;;;;;21.10;3.80;;;4.80;99.90;;;;;;4964717;28;20101;-95
2022/01/20 00:03:14;;;;;;;20.48;4.18;;;4.90;99.90;;;;;;4962315;28;20068;-94
2022/01/20 00:06:27;;;;;;;21.70;3.37;;;4.90;99.90;;;;;;4998362;28;20050;-94
2022/01/20 00:08:38;;;;;;;14.13;2.63;;;4.80;99.90;;;;;;5002211;28;20049;-94
2022/01/20 00:27:34;;;;;;;13.75;2.10;;;4.50;99.90;;;;;;5037387;28;20033;-94
2022/01/20 00:30:34;;;;;;;13.93;2.42;;;4.50;99.90;;;;;;4995323;28;20076;-94
2022/01/20 00:35:28;;;;;;;11.20;2.15;;;4.60;99.90;;;;;;5033003;28;20042;-93
2022/01/20 00:37:53;;;;;;;11.35;2.22;;;4.60;99.90;;;;;;5004932;28;20119;-95
2022/01/20 00:40:19;;;;;;;11.35;2.05;;;4.60;99.90;;;;;;5018798;28;20050;-96
2022/01/20 00:42:45;;;;;;;11.07;1.98;;;4.70;99.90;;;;;;5001782;28;20069;-96
2022/01/20 00:45:10;;;;;;;12.00;1.98;;;4.70;99.90;;;;;;4985451;28;20104;-95
2022/01/20 00:47:37;;;;;;;13.70;1.95;;;4.70;99.90;;;;;;4996405;28;20087;-93
2022/01/20 00:50:13;;;;;;;11.88;2.53;;;4.70;99.90;;;;;;4982740;28;20395;-95
2022/01/20 00:52:38;;;;;;;13.73;2.25;;;4.60;99.90;;;;;;4980682;28;20475;-93
2022/01/20 00:55:05;;;;;;;10.05;2.10;;;4.60;99.90;;;;;;4983929;28;20042;-96
2022/01/20 00:57:31;;;;;;;10.77;2.08;;;4.60;99.90;;;;;;4999192;28;20458;-95
2022/01/20 00:59:57;;;;;;;9.77;2.00;;;4.60;99.90;;;;;;4994634;28;20048;-95
2022/01/20 01:02:22;;;;;;;15.43;2.17;;;4.50;99.90;;;;;;4990323;28;20092;-96
2022/01/20 01:04:48;;;;;;;10.77;2.20;;;4.60;99.90;;;;;;4964579;28;20046;-93
2022/01/20 01:09:52;;;;;;;11.48;2.17;;;4.50;99.90;;;;;;4982411;28;20610;-94
2022/01/20 01:12:27;;;;;;;12.65;2.58;;;4.40;99.90;;;;;;4979082;28;20074;-95
2022/01/20 01:14:53;;;;;;;13.32;2.33;;;4.40;99.90;;;;;;4981139;28;20050;-94
2022/01/20 01:22:30;;;;;;;12.80;1.95;;;4.30;99.90;;;;;;4999692;28;20050;-94
2022/01/20 01:24:57;;;;;;;11.80;2.05;;;4.30;99.90;;;;;;5000094;28;20102;-92
2022/01/20 01:27:24;;;;;;;12.13;2.38;;;4.30;99.90;;;;;;4980674;28;20050;-94
2022/01/20 01:32:33;;;;;;;15.70;2.30;;;4.20;99.90;;;;;;4980229;28;20045;-94
2022/01/20 01:35:01;;;;;;;11.48;2.58;;;4.20;99.90;;;;;;4962568;28;20039;-95
2022/01/20 01:39:58;;;;;;;;;;;4.30;99.90;;;;;;4997678;28;20049;-93
2022/01/20 01:42:31;;;;;;;8.68;2.08;;;4.30;99.90;;;;;;4999174;28;19921;-95
2022/01/20 01:45:06;;;;;;;15.38;2.60;;;4.30;99.90;;;;;;4999227;28;20057;-94
2022/01/20 01:47:32;;;;;;;10.55;1.85;;;4.40;99.90;;;;;;4997111;28;20056;-94
2022/01/20 01:49:57;;;;;;;8.75;1.60;;;4.40;99.90;;;;;;4999340;28;20046;-92
2022/01/20 01:52:23;;;;;;;13.07;1.98;;;4.50;99.90;;;;;;4999739;28;20086;-95
2022/01/20 01:54:48;;;;;;;9.25;1.63;;;4.50;99.90;;;;;;4997083;28;20042;-94
2022/01/20 01:57:14;;;;;;;12.23;2.28;;;4.60;99.90;;;;;;4980200;28;20552;-93
2022/01/20 01:59:39;;;;;;;11.43;1.90;;;4.60;99.90;;;;;;4977871;28;20388;-94
2022/01/20 02:02:05;;;;;;;8.70;1.80;;;4.60;99.90;;;;;;4960682;28;20046;-95
2022/01/20 02:04:33;;;;;;;11.55;2.75;;;4.60;99.90;;;;;;4960953;28;20054;-93
2022/01/20 02:20:21;;;;;;;8.45;1.40;;;4.40;99.90;;;;;;5000996;28;20041;-95
2022/01/20 02:22:47;;;;;;;11.00;1.88;;;4.40;99.90;;;;;;5004594;28;20081;-95
2022/01/20 02:25:27;;;;;;;9.73;1.50;;;4.40;99.90;;;;;;4985610;28;20038;-95
2022/01/20 02:27:55;;;;;;;8.43;1.65;;;4.40;99.90;;;;;;4999387;28;20122;-95
2022/01/20 02:30:23;;;;;;;10.93;1.63;;;4.40;99.90;;;;;;4985422;28;20061;-94
2022/01/20 02:32:54;;;;;;;10.52;1.88;;;4.40;99.90;;;;;;4984566;28;20053;-95
2022/01/20 02:35:21;;;;;;;8.85;1.42;;;4.40;99.90;;;;;;4984010;28;20066;-95
2022/01/20 02:37:49;;;;;;;8.27;1.40;;;4.40;99.90;;;;;;5000446;28;20140;-91
2022/01/20 02:45:43;;;;;;;8.77;1.25;;;4.40;99.90;;;;;;4986653;28;20048;-94
2022/01/20 02:48:09;;;;;;;11.55;1.92;;;4.40;99.90;;;;;;4994489;28;20396;-93
2022/01/20 02:50:35;;;;;;;9.80;1.40;;;4.40;99.90;;;;;;4994642;28;20042;-94
2022/01/20 02:53:00;;;;;;;6.75;1.20;;;4.40;99.90;;;;;;5011591;28;20087;-93
2022/01/20 02:55:26;;;;;;;10.48;1.33;;;4.40;99.90;;;;;;4994975;28;20042;-93
2022/01/20 02:57:52;;;;;;;12.23;2.30;;;4.30;99.90;;;;;;4993603;28;20511;-93
2022/01/20 03:00:18;;;;;;;8.27;1.48;;;4.30;99.90;;;;;;4980786;28;20042;-94
2022/01/20 03:02:44;;;;;;;11.00;1.55;;;4.30;99.90;;;;;;4984817;28;20420;-91
2022/01/20 03:05:11;;;;;;;8.75;1.40;;;4.20;99.90;;;;;;5013398;28;20411;-94
2022/01/20 03:07:37;;;;;;;8.43;1.65;;;4.10;99.90;;;;;;4993878;28;20060;-91
2022/01/20 03:10:05;;;;;;;13.55;1.88;;;4.10;99.90;;;;;;5014901;28;20045;-94
2022/01/20 03:12:30;;;;;;;13.95;2.17;;;4.10;99.90;;;;;;4994916;28;20101;-92
2022/01/20 03:14:56;;;;;;;10.93;1.98;;;4.00;99.90;;;;;;5014235;28;20077;-94
2022/01/20 03:17:22;;;;;;;14.45;3.15;;;4.00;99.90;;;;;;4987883;28;20049;-93
2022/01/20 03:19:47;;;;;;;12.10;2.25;;;4.00;99.90;;;;;;4982072;28;20461;-92
2022/01/20 03:22:13;;;;;;;11.18;2.40;;;3.90;99.90;;;;;;4996041;28;20136;-95
2022/01/20 03:24:39;;;;;;;12.73;2.10;;;3.90;99.90;;;;;;4973455;28;20076;-93
2022/01/20 03:27:05;;;;;;;15.45;2.42;;;3.90;99.90;;;;;;4987365;28;20045;-94
2022/01/20 03:29:30;;;;;;;12.88;2.78;;;3.90;99.90;;;;;;4998556;28;20042;-96
2022/01/20 03:31:56;;;;;;;13.00;2.28;;;3.90;99.90;;;;;;4962212;28;20044;-93
2022/01/20 03:34:22;;;;;;;12.20;2.15;;;4.00;99.90;;;;;;4975430;28;20453;-96
2022/01/20 03:36:48;;;;;;;12.50;2.40;;;4.00;99.90;;;;;;4967674;28;20049;-91
2022/01/20 03:39:14;;;;;;;15.93;3.10;;;3.90;99.90;;;;;;4980792;28;20049;-93
2022/01/20 03:41:40;;;;;;;13.88;2.55;;;4.00;99.90;;;;;;4995441;28;20046;-94
2022/01/20 03:44:06;;;;;;;13.95;2.60;;;4.00;99.90;;;;;;4992946;28;20045;-94
2022/01/20 03:46:33;;;;;;;14.20;2.75;;;4.00;99.90;;;;;;4961326;28;20446;-95
2022/01/20 03:49:11;;;;;;;18.73;3.45;;;4.00;99.90;;;;;;4963036;28;20124;-93
2022/01/20 03:51:37;;;;;;;16.30;3.38;;;3.90;99.90;;;;;;4976726;28;20096;-93
2022/01/20 03:54:05;;;;;;;16.58;2.70;;;4.00;99.90;;;;;;4962778;28;20038;-93
2022/01/20 03:56:32;;;;;;;14.93;3.00;;;3.80;99.90;;;;;;4986028;28;20065;-94
2022/01/20 03:58:58;;;;;;;16.52;2.85;;;3.90;99.90;;;;;;4971647;28;20491;-94
2022/01/20 04:01:23;;;;;;;20.85;2.72;;;3.90;99.90;;;;;;4983981;28;20034;-95
2022/01/20 04:03:49;;;;;;;17.50;3.03;;;4.00;99.90;;;;;;4988697;28;20042;-93
2022/01/20 04:06:16;;;;;;;15.77;2.95;;;3.90;99.90;;;;;;4977602;28;20037;-92
2022/01/20 04:08:47;;;;;;;16.80;3.38;;;4.00;99.90;;;;;;4992875;28;20069;-95
2022/01/20 04:11:16;;;;;;;18.73;3.58;;;3.90;99.90;;;;;;4977809;28;20038;-95
2022/01/20 04:13:42;;;;;;;17.05;3.10;;;4.00;99.90;;;;;;4976391;28;20038;-94
2022/01/20 04:16:19;;;;;;;22.65;4.32;;;4.00;99.90;;;;;;4993711;28;20510;-93
2022/01/20 04:18:53;;;;;;;14.82;2.85;;;3.90;99.90;;;;;;4964559;28;20042;-96
2022/01/20 04:21:25;;;;;;;16.77;2.90;;;3.90;99.90;;;;;;4971305;28;20501;-95
2022/01/20 04:23:51;;;;;;;13.05;2.45;;;3.90;99.90;;;;;;4960302;28;20054;-95
2022/01/20 04:26:17;;;;;;;15.45;2.95;;;3.90;99.90;;;;;;4973901;28;20045;-96
2022/01/20 04:28:43;;;;;;;17.92;3.00;;;3.90;99.90;;;;;;4967926;28;20031;-95
2022/01/20 04:31:09;;;;;;;16.73;3.00;;;3.90;99.90;;;;;;4982697;28;20049;-90
2022/01/20 04:33:34;;;;;;;13.45;2.78;;;3.90;99.90;;;;;;4984080;28;20058;-95
2022/01/20 04:36:00;;;;;;;14.75;3.13;;;3.90;99.90;;;;;;4977998;28;20050;-95
2022/01/20 04:38:26;;;;;;;15.00;2.40;;;3.90;99.90;;;;;;4975807;28;20106;-95
2022/01/20 04:40:52;;;;;;;17.83;2.65;;;3.90;99.90;;;;;;4989064;28;20406;-95
2022/01/20 04:43:19;;;;;;;13.23;2.72;;;3.90;99.90;;;;;;4987855;28;20057;-95
2022/01/20 04:45:52;;;;;;;15.52;3.58;;;3.90;99.90;;;;;;4960025;28;20042;-95
2022/01/20 04:48:45;;;;;;;10.65;2.47;;;3.80;99.90;;;;;;4969296;28;20385;-95
2022/01/20 04:59:24;;;;;;;12.05;2.33;;;3.60;99.90;;;;;;4980609;28;20054;-95
2022/01/20 05:01:49;;;;;;;14.57;2.55;;;3.60;99.90;;;;;;4983769;28;20110;-96
2022/01/20 05:04:15;;;;;;;14.73;2.50;;;3.50;99.90;;;;;;4999294;28;20129;-96
2022/01/20 05:06:43;;;;;;;12.60;2.22;;;3.50;99.90;;;;;;4986467;28;20049;-96
2022/01/20 05:09:16;;;;;;;13.95;2.70;;;3.50;99.90;;;;;;4989933;28;20101;-94
2022/01/20 05:11:46;;;;;;;12.73;2.60;;;3.50;99.90;;;;;;5001502;28;20047;-94
2022/01/20 05:14:11;;;;;;;15.73;2.65;;;3.50;99.90;;;;;;4994473;28;20520;-96
2022/01/20 05:16:37;;;;;;;15.02;3.30;;;3.50;99.90;;;;;;4982696;28;20133;-95
2022/01/20 05:19:03;;;;;;;11.93;2.45;;;3.60;99.90;;;;;;4984268;28;20076;-94
2022/01/20 05:21:29;;;;;;;14.35;2.38;;;3.60;99.90;;;;;;4983947;28;20479;-96
2022/01/20 05:23:54;;;;;;;14.68;2.60;;;3.70;99.90;;;;;;5003895;28;20141;-94
2022/01/20 05:26:20;;;;;;;12.75;2.60;;;3.60;99.90;;;;;;5022035;28;20038;-96
2022/01/20 05:28:46;;;;;;;16.67;2.60;;;3.60;99.90;;;;;;4990161;28;20053;-95
2022/01/20 05:31:12;;;;;;;13.48;2.75;;;3.60;99.90;;;;;;5023776;28;20509;-95
2022/01/20 05:33:37;;;;;;;16.10;2.80;;;3.70;99.90;;;;;;5010852;28;20046;-95
2022/01/20 05:36:04;;;;;;;15.10;3.20;;;3.50;99.90;;;;;;5012071;28;20097;-93
2022/01/20 05:38:29;;;;;;;14.07;2.33;;;3.50;99.90;;;;;;5001271;28;20026;-93
2022/01/20 05:40:55;;;;;;;14.15;2.80;;;3.50;99.90;;;;;;5018974;28;20060;-96
2022/01/20 05:43:21;;;;;;;15.15;3.38;;;3.60;99.90;;;;;;4999059;28;20042;-96
2022/01/20 05:45:47;;;;;;;14.35;2.55;;;3.60;99.90;;;;;;5107929;22;20072;-96
2022/01/20 05:48:17;;;;;;;14.93;3.10;;;3.50;99.90;;;;;;5051153;28;20036;-96
2022/01/20 05:50:44;;;;;;;10.00;1.90;;;3.50;99.90;;;;;;5061026;28;20128;-95
2022/01/20 05:53:10;;;;;;;10.70;1.75;;;3.40;99.90;;;;;;5024130;28;20045;-94
2022/01/20 05:55:37;;;;;;;8.50;1.58;;;3.30;99.90;;;;;;5019992;28;20178;-93
2022/01/20 05:58:06;;;;;;;10.27;2.25;;;3.40;99.90;;;;;;5011248;28;20041;-94
2022/01/20 06:00:36;;;;;;;8.30;1.60;;;3.40;99.90;;;;;;5025204;28;20042;-95
2022/01/20 06:05:45;;;;;;;9.00;1.73;;;3.30;99.90;;;;;;5049386;28;20060;-94
2022/01/20 06:08:11;;;;;;;11.88;1.83;;;3.20;99.90;;;;;;5027740;28;20555;-96
2022/01/20 06:10:37;;;;;;;8.77;1.50;;;3.20;99.90;;;;;;5030713;28;20072;-95
2022/01/20 06:13:06;;;;;;;10.75;1.85;;;3.10;99.90;;;;;;5047053;28;20112;-93
2022/01/20 06:15:32;;;;;;;12.10;1.83;;;3.10;99.90;;;;;;5025691;28;20075;-96
2022/01/20 06:17:58;;;;;;;9.43;1.90;;;3.10;99.90;;;;;;5029291;28;20036;-96
2022/01/20 06:20:23;;;;;;;12.15;2.05;;;3.00;99.90;;;;;;5009539;28;20461;-94
2022/01/20 06:22:52;;;;;;;12.20;1.92;;;2.90;99.90;;;;;;5012185;28;20037;-95
2022/01/20 06:25:18;;;;;;;13.73;3.35;;;2.80;99.90;;;;;;5013024;28;20045;-96
2022/01/20 06:27:44;;;;;;;8.70;1.65;;;2.90;99.90;;;;;;5045307;28;20037;-95
2022/01/20 06:30:10;;;;;;;10.90;2.17;;;2.90;99.90;;;;;;5029358;28;20699;-96
2022/01/20 06:35:12;;;;;;;11.80;2.47;;;2.90;99.90;;;;;;5930958;22;20024;-92
2022/01/20 06:37:37;;;;;;;12.63;1.95;;;3.00;99.90;;;;;;5586878;23;20030;-94
2022/01/20 06:40:06;;;;;;;9.00;1.52;;;2.90;99.90;;;;;;4996542;28;20052;-95
2022/01/20 06:45:08;;;;;;;11.27;2.47;;;2.80;99.90;;;;;;5439326;22;20020;-96
2022/01/20 07:10:13;;;;;;;12.80;3.20;;;2.60;99.90;;;;;;806991;22;20318;-95
2022/01/20 07:15:32;;;;;;;11.20;1.83;;;2.50;99.90;;;;;;772544;22;20295;31
2022/01/20 07:17:58;;;;;;;10.77;2.10;;;2.50;99.90;;;;;;4954088;28;20058;-90
2022/01/20 07:20:23;;;;;;;18.70;2.20;;;2.60;99.90;;;;;;4961740;28;20038;-91
2022/01/20 07:22:49;;;;;;;12.65;2.55;;;2.60;99.90;;;;;;4961424;28;20092;-93
2022/01/20 07:25:35;;;;;;;15.95;2.28;;;2.80;99.90;;;;;;4971047;28;20435;-96
2022/01/20 07:28:01;;;;;;;13.27;2.30;;;2.80;99.90;;;;;;4978783;28;20439;-95
2022/01/20 07:36:08;;;;;;;12.60;2.05;;;2.90;99.90;;;;;;5242757;23;20061;-96
2022/01/20 07:38:34;;;;;;;10.75;2.55;;;2.70;99.90;;;;;;5010559;28;20033;-94
2022/01/20 07:41:02;;;;;;;11.55;2.63;;;2.90;99.90;;;;;;5133409;23;20021;-95
2022/01/20 07:43:28;;;;;;;11.05;1.80;;;2.90;99.90;;;;;;5338048;22;20053;-94
2022/01/20 07:45:54;;;;;;;12.63;2.22;;;3.00;99.90;;;;;;5028841;28;20540;-93
2022/01/20 07:48:20;;;;;;;14.32;2.75;;;3.00;99.90;;;;;;5014487;28;20038;-92
2022/01/20 07:50:46;;;;;;;14.98;2.65;;;3.00;99.90;;;;;;5014743;28;20053;-92
2022/01/20 07:53:12;;;;;;;14.48;2.50;;;3.00;99.90;;;;;;5013906;28;20447;-94
2022/01/20 07:55:43;;;;;;;15.23;2.88;;;3.00;99.90;;;;;;5013037;28;20075;-95
2022/01/20 07:58:09;;;;;;;15.23;2.40;;;3.00;99.90;;;;;;5005481;28;20123;-94
2022/01/20 08:00:35;;;;;;;16.00;2.55;;;3.00;99.90;;;;;;5014614;28;20029;-93
2022/01/20 08:03:00;;;;;;;15.30;3.13;;;3.00;99.90;;;;;;5014369;28;20049;-95
2022/01/20 08:05:26;;;;;;;12.93;2.78;;;2.90;99.90;;;;;;5013663;28;20072;-93
2022/01/20 08:07:54;;;;;;;14.63;3.15;;;2.90;99.90;;;;;;5019711;28;20083;-95
2022/01/20 08:47:34;;;;;;;17.55;3.50;;;3.20;99.90;;;;;;5041360;23;20054;-96
2022/01/20 08:50:01;;;;;;;17.02;6.93;;;3.30;99.90;;;;;;5011233;28;20051;-94
2022/01/20 08:52:30;;;;;;;13.20;2.72;;;3.40;99.90;;;;;;4990217;28;20042;-96
2022/01/20 08:57:32;;;;;;;13.80;2.72;;;3.50;99.90;;;;;;5004127;28;20062;-96
2022/01/20 08:59:58;;;;;;;13.77;2.53;;;3.50;99.90;;;;;;5064831;23;20069;-96
2022/01/20 09:02:23;;;;;;;10.95;2.50;;;3.50;99.90;;;;;;4969387;28;20026;-94
2022/01/20 09:04:50;;;;;;;12.30;2.78;;;3.40;99.90;;;;;;4984778;28;20050;-96
2022/01/20 09:17:52;;;;;;;12.40;3.55;;;3.10;99.90;;;;;;4990392;28;20042;-96
2022/01/20 09:20:19;;;;;;;12.35;3.85;;;2.90;99.90;;;;;;5203885;23;20108;-96
2022/01/20 09:22:48;;;;;;;10.45;3.30;;;2.90;99.90;;;;;;5209581;23;20828;-94
2022/01/20 09:27:51;;;;;;;9.02;2.25;;;2.80;99.90;;;;;;4997812;28;20046;-96
2022/01/20 09:30:19;;;;;;;13.07;2.88;;;2.70;99.90;;;;;;4986310;28;20065;-95
2022/01/20 09:32:56;;;;;;;9.27;2.35;;;2.70;99.90;;;;;;4956356;28;20588;-92
2022/01/20 09:35:22;;;;;;;12.98;2.00;;;2.60;99.90;;;;;;4964354;28;20403;-94
2022/01/20 09:37:48;;;;;;;9.63;2.05;;;2.70;99.90;;;;;;4958191;28;20109;-95
2022/01/20 09:48:34;;;;;;;14.73;2.13;;;2.90;99.90;;;;;;5230630;22;20294;-95
2022/01/20 09:51:01;;;;;;;9.07;2.22;;;3.10;99.90;;;;;;5036001;23;20046;-96
2022/01/20 09:53:47;;;;;;;12.00;2.72;;;3.20;99.90;;;;;;5248101;22;20028;-95
2022/01/20 09:58:53;;;;;;;16.17;7.40;;;3.20;99.90;;;;;;5045162;28;20053;-94
2022/01/20 10:01:41;;;;;;;9.90;1.58;;;3.10;99.90;;;;;;5003121;28;20045;-95
2022/01/20 10:04:34;;;;;;;9.63;1.80;;;3.00;99.90;;;;;;5029442;28;20042;-95
2022/01/20 10:07:13;;;;;;;9.98;2.00;;;2.80;99.90;;;;;;5027267;28;20097;-95
2022/01/20 10:09:52;;;;;;;9.95;2.05;;;2.70;99.90;;;;;;5026725;28;20129;-94
2022/01/20 10:12:19;;;;;;;10.70;1.98;;;2.60;99.90;;;;;;4985965;28;20411;-94
2022/01/20 10:14:51;;;;;;;8.77;2.08;;;2.50;99.90;;;;;;5001129;28;20056;-95
2022/01/20 10:17:20;;;;;;;9.95;2.08;;;2.50;99.90;;;;;;5002418;28;20045;-90
2022/01/20 10:19:50;;;;;;;9.63;1.90;;;2.50;99.90;;;;;;5001316;28;20056;-91
2022/01/20 10:22:17;;;;;;;10.38;1.77;;;2.60;99.90;;;;;;5001233;28;20351;-94
2022/01/20 10:25:14;;;;;;;16.70;2.10;;;2.80;99.90;;;;;;5000738;28;20041;-91
2022/01/20 10:27:55;;;;;;;10.32;1.70;;;3.00;99.90;;;;;;4980827;28;20139;-95
2022/01/20 10:30:24;;;;;;;10.10;1.52;;;3.10;99.90;;;;;;4997858;28;20081;-93
2022/01/20 10:32:52;;;;;;;10.15;1.77;;;3.10;99.90;;;;;;4996714;28;20213;-93
2022/01/20 10:35:27;;;;;;;12.63;2.30;;;3.00;99.90;;;;;;4998735;28;20052;-95
2022/01/20 10:38:10;;;;;;;9.45;1.98;;;2.90;99.90;;;;;;4995614;28;20054;-93
2022/01/20 10:40:52;;;;;;;10.63;1.70;;;2.80;99.90;;;;;;5000835;28;20067;-94
2022/01/20 10:43:34;;;;;;;10.73;1.75;;;2.80;99.90;;;;;;5012643;28;20057;-96
2022/01/20 10:46:12;;;;;;;10.73;1.88;;;2.70;99.90;;;;;;5021454;28;20050;-95
2022/01/20 10:51:18;;;;;;;11.57;2.00;;;2.70;99.90;;;;;;5147857;22;20083;-94
2022/01/20 10:53:43;;;;;;;11.27;1.75;;;2.70;99.90;;;;;;5026346;28;20073;-95
2022/01/20 11:01:40;;;;;;;14.65;2.33;;;2.90;99.90;;;;;;5094965;22;20045;-95
2022/01/20 11:04:08;;;;;;;13.27;2.60;;;2.90;99.90;;;;;;5740120;23;20061;-95
2022/01/20 11:06:36;;;;;;;14.32;2.25;;;3.10;99.90;;;;;;5081329;23;20049;-95
2022/01/20 11:09:06;;;;;;;13.40;2.05;;;3.20;99.90;;;;;;4977300;28;20046;-94
2022/01/20 11:11:48;;;;;;;10.30;1.80;;;3.30;99.90;;;;;;4977792;28;20121;-95
2022/01/20 11:14:14;;;;;;;10.80;1.88;;;3.30;99.90;;;;;;4971328;28;20046;-95
2022/01/20 11:16:41;;;;;;;9.05;1.70;;;3.30;99.90;;;;;;4963821;28;20038;-87
2022/01/20 11:19:19;;;;;;;11.30;1.85;;;3.40;99.90;;;;;;4984383;28;20042;-90
2022/01/20 11:21:46;;;;;;;10.85;2.17;;;3.50;99.90;;;;;;4968985;28;20133;-91
2022/01/20 11:24:28;;;;;;;8.93;2.10;;;3.50;99.90;;;;;;4972571;28;20052;-94
2022/01/20 11:27:03;;;;;;;14.82;2.58;;;3.60;99.90;;;;;;4984039;28;20036;-95
2022/01/20 11:29:50;;;;;;;12.52;2.00;;;3.70;99.90;;;;;;5005709;28;20042;-94
2022/01/20 11:32:25;;;;;;;13.25;2.20;;;3.80;99.90;;;;;;4991453;28;20054;-94
2022/01/20 11:34:57;;;;;;;10.73;2.22;;;3.90;99.90;;;;;;4974368;28;20058;-95
2022/01/20 11:37:34;;;;;;;15.60;2.65;;;3.90;99.90;;;;;;4977040;28;20128;-95
2022/01/20 11:40:19;;;;;;;19.70;3.22;;;4.00;99.90;;;;;;5365901;23;20025;31
2022/01/20 11:45:33;;;;;;;10.65;2.38;;;4.20;99.90;;;;;;5345251;22;20525;-95
2022/01/20 11:48:11;;;;;;;14.77;2.28;;;4.30;99.90;;;;;;5031709;28;20050;-92
2022/01/20 11:50:43;;;;;;;11.07;2.38;;;4.30;99.90;;;;;;5020835;28;20045;-94
2022/01/20 11:55:50;;;;;;;15.52;2.85;;;4.40;99.90;;;;;;5935784;22;20110;-93
2022/01/20 12:04:16;;;;;;;13.68;2.72;;;4.80;99.90;;;;;;5616395;23;20062;-96
2022/01/20 12:06:46;;;;;;;13.70;2.97;;;4.80;99.90;;;;;;5017921;28;20028;-96
2022/01/20 12:09:40;;;;;;;23.33;9.55;;;4.90;99.90;;;;;;5301334;23;20073;-96
2022/01/20 12:12:22;;;;;;;13.70;4.43;;;4.70;99.90;;;;;;5010136;28;20042;-96
2022/01/20 12:14:48;;;;;;;13.65;3.05;;;4.60;99.90;;;;;;5038221;22;20051;-96
2022/01/20 12:17:17;;;;;;;13.88;2.33;;;4.50;99.90;;;;;;4998462;28;20077;-92
2022/01/20 12:19:53;;;;;;;15.30;2.53;;;4.30;99.90;;;;;;4996593;28;20109;-95
2022/01/20 12:22:18;;;;;;;10.85;2.58;;;4.30;99.90;;;;;;4979670;28;20043;-94
2022/01/20 12:24:53;;;;;;;12.68;2.67;;;4.20;99.90;;;;;;4988586;28;20421;-95
2022/01/20 12:27:20;;;;;;;11.73;1.92;;;4.20;99.90;;;;;;4978411;28;20067;-96
2022/01/20 12:29:46;;;;;;;13.10;2.55;;;4.20;99.90;;;;;;4981676;28;20073;-94
2022/01/20 12:32:13;;;;;;;13.02;2.22;;;4.30;99.90;;;;;;4976717;28;20218;-93
2022/01/20 12:34:40;;;;;;;12.50;2.95;;;4.30;99.90;;;;;;5002700;28;20045;-95
2022/01/20 12:37:06;;;;;;;11.13;2.47;;;4.30;99.90;;;;;;5003168;28;20041;-92
2022/01/20 12:39:35;;;;;;;12.95;2.30;;;4.30;99.90;;;;;;4974910;28;20042;-95
2022/01/20 12:42:12;;;;;;;12.00;2.30;;;4.40;99.90;;;;;;4977698;28;20034;-95
2022/01/20 12:44:48;;;;;;;13.30;2.40;;;4.40;99.90;;;;;;4966870;28;20139;-94
2022/01/20 12:47:16;;;;;;;15.35;2.92;;;4.50;99.90;;;;;;4974502;28;20039;-91
2022/01/20 12:49:41;;;;;;;12.88;2.90;;;4.60;99.90;;;;;;4953021;28;20034;-93
2022/01/20 12:52:08;;;;;;;11.68;2.65;;;4.70;99.90;;;;;;4960088;28;20449;-90
2022/01/20 12:54:35;;;;;;;13.27;2.63;;;4.70;99.90;;;;;;4975651;28;20043;-94
2022/01/20 12:57:13;;;;;;;14.50;2.70;;;4.80;99.90;;;;;;4963743;28;20180;-94
2022/01/20 12:59:42;;;;;;;15.35;2.78;;;4.90;99.90;;;;;;4957517;28;20053;-93
2022/01/20 13:02:10;;;;;;;15.20;3.70;;;5.00;99.90;;;;;;4964409;28;20049;-93
2022/01/20 13:04:38;;;;;;;45.45;29.38;;;5.10;99.90;;;;;;4962740;28;20410;-96
2022/01/20 13:07:06;;;;;;;14.48;3.20;;;5.20;99.90;;;;;;4966157;28;20045;-96
2022/01/20 13:09:48;;;;;;;15.63;3.42;;;5.40;99.90;;;;;;4982973;28;20065;-94
2022/01/20 13:12:17;;;;;;;15.85;2.78;;;5.40;99.90;;;;;;4966558;28;20038;-93
2022/01/20 13:14:51;;;;;;;14.43;2.67;;;5.40;99.90;;;;;;4966444;28;20091;-92
2022/01/20 13:17:30;;;;;;;11.32;2.58;;;5.40;99.90;;;;;;4975073;28;20047;-92
2022/01/20 13:19:58;;;;;;;11.85;2.35;;;5.50;99.90;;;;;;4966000;28;20026;-95
2022/01/20 13:22:53;;;;;;;10.38;2.75;;;5.40;99.90;;;;;;4964593;28;20031;-92
2022/01/20 13:25:21;;;;;;;14.45;2.80;;;5.20;99.90;;;;;;4964206;28;20074;-93
2022/01/20 13:27:57;;;;;;;11.45;2.80;;;4.70;99.90;;;;;;4959518;28;20191;-94
2022/01/20 13:30:40;;;;;;;11.35;1.88;;;4.30;99.90;;;;;;4956784;28;20050;-91
2022/01/20 13:33:20;;;;;;;13.50;2.45;;;4.00;99.90;;;;;;4961121;28;20054;-94
2022/01/20 13:36:03;;;;;;;13.67;2.57;;;4.00;99.90;;;;;;4957413;28;20078;-96
2022/01/20 13:38:34;;;;;;;10.07;1.90;;;4.00;99.90;;;;;;4958226;28;20127;-96
2022/01/20 13:41:07;;;;;;;12.73;2.58;;;4.10;99.90;;;;;;4943707;28;20030;-95
2022/01/20 13:46:28;;;;;;;11.15;1.92;;;4.10;99.90;;;;;;4972902;28;20046;-94
2022/01/20 13:48:53;;;;;;;13.55;2.40;;;4.20;99.90;;;;;;4957726;28;20043;-91
2022/01/20 13:51:25;;;;;;;14.43;2.63;;;4.30;99.90;;;;;;4940811;28;20109;-95
2022/01/20 13:53:55;;;;;;;12.20;2.28;;;4.30;99.90;;;;;;4936787;28;20082;-93
2022/01/20 13:56:23;;;;;;;11.10;1.70;;;4.30;99.90;;;;;;4956149;28;20031;-94
2022/01/20 13:58:50;;;;;;;11.10;2.22;;;4.40;99.90;;;;;;4956149;28;20457;-97
2022/01/20 14:01:15;;;;;;;12.27;3.03;;;4.50;99.90;;;;;;4966160;28;20075;-95
2022/01/20 14:03:41;;;;;;;11.35;2.03;;;4.60;99.90;;;;;;4959469;28;20504;-92
2022/01/20 14:06:07;;;;;;;9.98;1.70;;;4.70;99.90;;;;;;4959031;28;20035;-96
2022/01/20 14:08:36;;;;;;;11.65;2.08;;;4.70;99.90;;;;;;4957039;28;20038;-94
2022/01/20 14:11:03;;;;;;;15.65;2.72;;;4.70;99.90;;;;;;4956118;28;20047;-94
2022/01/20 14:13:29;;;;;;;11.52;2.35;;;4.70;99.90;;;;;;4956239;28;20082;-93
2022/01/20 14:15:55;;;;;;;12.20;2.42;;;4.60;99.90;;;;;;4956017;28;20055;-94
2022/01/20 14:18:23;;;;;;;10.45;3.45;;;4.30;99.90;;;;;;4928742;29;20374;-93
2022/01/20 14:20:49;;;;;;;9.35;1.88;;;4.10;99.90;;;;;;4931852;28;20042;-94
2022/01/20 14:23:15;;;;;;;10.75;3.17;;;4.10;99.90;;;;;;4940380;28;20137;-94
2022/01/20 14:25:42;;;;;;;10.93;2.60;;;4.10;99.90;;;;;;4954316;28;20078;-90
2022/01/20 14:28:08;;;;;;;10.75;1.83;;;4.20;99.90;;;;;;4957218;28;20507;-95
2022/01/20 14:30:34;;;;;;;12.55;2.00;;;4.20;99.90;;;;;;4954606;28;20046;-93
2022/01/20 14:33:01;;;;;;;11.38;1.98;;;4.20;99.90;;;;;;4941664;28;20086;-90
2022/01/20 14:35:28;;;;;;;10.98;2.20;;;4.20;99.90;;;;;;4962998;28;20042;-94
2022/01/20 14:37:55;;;;;;;10.07;2.17;;;4.00;99.90;;;;;;4956596;28;20407;-95
2022/01/20 14:40:22;;;;;;;10.20;1.73;;;3.70;99.90;;;;;;4958878;28;20041;-93
2022/01/20 14:42:49;;;;;;;9.48;1.85;;;3.50;99.90;;;;;;4939929;28;20054;-93
2022/01/20 14:45:16;;;;;;;9.52;1.85;;;3.30;99.90;;;;;;4954605;28;20523;-91
2022/01/20 14:47:42;;;;;;;11.48;2.08;;;3.10;99.90;;;;;;4937145;28;20038;-91
2022/01/20 14:50:09;;;;;;;8.85;1.50;;;3.10;99.90;;;;;;4954139;28;20444;-89
2022/01/20 14:52:36;;;;;;;10.32;1.77;;;3.10;99.90;;;;;;4952857;28;20053;-90
2022/01/20 14:55:06;;;;;;;9.80;1.90;;;3.10;99.90;;;;;;4937410;28;20042;-90
2022/01/20 14:57:31;;;;;;;6.85;1.73;;;3.10;99.90;;;;;;4936055;28;20039;-89
2022/01/20 14:59:57;;;;;;;10.20;1.50;;;3.10;99.90;;;;;;4920341;29;20098;-91
2022/01/20 15:02:23;;;;;;;8.30;1.63;;;3.00;99.90;;;;;;4949475;28;20406;-91
2022/01/20 15:04:49;;;;;;;8.25;1.38;;;3.00;99.90;;;;;;4952839;28;20117;-91
2022/01/20 15:07:15;;;;;;;8.90;1.55;;;3.00;99.90;;;;;;4938262;28;20051;-91
2022/01/20 15:09:41;;;;;;;8.77;1.73;;;2.90;99.90;;;;;;4952847;28;20043;-91
2022/01/20 15:12:08;;;;;;;8.77;1.45;;;2.90;99.90;;;;;;4938111;28;20415;-91
2022/01/20 15:14:35;;;;;;;8.27;1.83;;;2.90;99.90;;;;;;4941786;28;20077;-90
2022/01/20 15:17:01;;;;;;;9.98;1.75;;;2.90;99.90;;;;;;4973184;28;20046;-93
2022/01/20 15:19:26;;;;;;;8.70;1.90;;;3.00;99.90;;;;;;4972078;28;20046;-91
2022/01/20 15:21:52;;;;;;;12.73;1.88;;;2.90;99.90;;;;;;4972973;28;20460;-91
2022/01/20 15:24:18;;;;;;;11.85;2.70;;;3.00;99.90;;;;;;4957441;28;20046;-94
2022/01/20 15:26:43;;;;;;;9.60;2.22;;;3.00;99.90;;;;;;4958066;28;20035;-91
2022/01/20 15:29:09;;;;;;;13.45;4.43;;;3.10;99.90;;;;;;4976995;28;20046;-92
2022/01/20 15:31:36;;;;;;;13.75;4.00;;;3.10;99.90;;;;;;4966913;28;20050;-92
2022/01/20 15:34:07;;;;;;;11.35;2.65;;;3.10;99.90;;;;;;4958577;28;20049;-93
2022/01/20 15:36:34;;;;;;;13.60;3.40;;;3.10;99.90;;;;;;4973059;28;20038;-90
2022/01/20 15:39:00;;;;;;;8.93;1.95;;;3.10;99.90;;;;;;4971709;28;20569;-91
2022/01/20 15:41:29;;;;;;;12.07;2.42;;;3.10;99.90;;;;;;4956395;28;20038;-91
2022/01/20 15:43:55;;;;;;;14.25;2.75;;;3.10;99.90;;;;;;4959959;28;20481;-94
2022/01/20 15:46:21;;;;;;;12.65;2.35;;;3.20;99.90;;;;;;4970719;28;20124;-91
2022/01/20 15:48:46;;;;;;;12.23;2.95;;;3.30;99.90;;;;;;4976579;28;20038;-92
2022/01/20 15:51:12;;;;;;;11.95;2.85;;;3.10;99.90;;;;;;4960609;28;20022;-94
2022/01/20 15:53:38;;;;;;;16.38;2.78;;;3.10;99.90;;;;;;4997076;28;20066;-93
2022/01/20 15:56:08;;;;;;;13.88;2.38;;;3.10;99.90;;;;;;4964582;28;20129;-94
2022/01/20 15:58:34;;;;;;;13.93;2.85;;;3.10;99.90;;;;;;4957673;28;20061;-93
2022/01/20 16:00:59;;;;;;;13.82;2.85;;;3.10;99.90;;;;;;4972542;28;20487;-92